Delta Virtual Airport Information Service

Southwest Florida International Airport

ICAO: KRSW Country: United States
Latitude: 26.5362 Longitude: -81.7551
Latest Arrival : DAC9129 (SLLP-KRSW) Latest Departure : DAL681861 (KRSW-KATL)


WX CaptureLIVE
Data provided by noaa.gov | Fetched at 16:14:02

METAR : KRSW 292053Z 23013KT 10SM SCT030 SCT043 SCT060 30/23 A2982 RMK AO2 LTG DSNT S SLP096 T03000233 55008

TAF : KRSW 292014Z 2920/3018 23012KT P6SM VCTS SCT030CB BKN120 TEMPO 2920/2924 VRB15G25KT 3SM TSRA BKN025CB FM300700 33005KT P6SM VCSH SCT025 BKN040 FM301100 36007KT P6SM BKN025 FM301400 03008KT P6SM BKN025


Runway Data for KRSW
Data provided by openaviationdata.com

Runway ID Mag Var Hdg Length Elevation Surface ILS Freq ILS Id ILS Slope
6 -3 57° 12007 ft 30 ft Asphalt 111.5 IRSW 3
24 -3 237° 12007 ft 30 ft Asphalt -- -- --

Southwest Florida International Airport, United States
Use only for reference purposes



Not for navigational purposes.